sensor_id;sensor_type;location;lat;lon;timestamp;temperature;humidity
19000;DHT22;9633;50.980;13.850;2023-04-06T00:00:53;-1.80;99.90
19000;DHT22;9633;50.980;13.850;2023-04-06T00:02:27;-1.80;99.90
19000;DHT22;9633;50.980;13.850;2023-04-06T00:04:00;-1.80;99.90
19000;DHT22;9633;50.980;13.850;2023-04-06T00:05:33;-1.80;99.90
19000;DHT22;9633;50.980;13.850;2023-04-06T00:07:06;-1.80;99.90
19000;DHT22;9633;50.980;13.850;2023-04-06T00:08:39;-1.70;99.90
19000;DHT22;9633;50.980;13.850;2023-04-06T00:10:13;-1.60;99.90
19000;DHT22;9633;50.980;13.850;2023-04-06T00:11:46;-1.60;99.90
19000;DHT22;9633;50.980;13.850;2023-04-06T00:13:18;-1.60;99.90
19000;DHT22;9633;50.980;13.850;2023-04-06T00:14:52;-1.50;99.90
19000;DHT22;9633;50.980;13.850;2023-04-06T00:16:24;-1.50;99.90
19000;DHT22;9633;50.980;13.850;2023-04-06T00:18:02;-1.40;99.90
19000;DHT22;9633;50.980;13.850;2023-04-06T00:19:36;-1.30;99.90
19000;DHT22;9633;50.980;13.850;2023-04-06T00:21:11;-1.20;99.90
19000;DHT22;9633;50.980;13.850;2023-04-06T00:22:45;-1.20;99.90
19000;DHT22;9633;50.980;13.850;2023-04-06T00:24:18;-1.20;99.90
19000;DHT22;9633;50.980;13.850;2023-04-06T00:25:50;-1.40;99.90
19000;DHT22;9633;50.980;13.850;2023-04-06T00:27:23;-1.50;99.90
19000;DHT22;9633;50.980;13.850;2023-04-06T00:28:57;-1.50;99.90
19000;DHT22;9633;50.980;13.850;2023-04-06T00:30:30;-1.60;99.90
19000;DHT22;9633;50.980;13.850;2023-04-06T00:32:04;-1.70;99.90
19000;DHT22;9633;50.980;13.850;2023-04-06T00:33:38;-1.70;99.90
19000;DHT22;9633;50.980;13.850;2023-04-06T00:35:11;-1.80;99.90
19000;DHT22;9633;50.980;13.850;2023-04-06T00:36:43;-1.90;99.90
19000;DHT22;9633;50.980;13.850;2023-04-06T00:38:17;-1.90;99.90
19000;DHT22;9633;50.980;13.850;2023-04-06T00:39:50;-1.90;99.90
19000;DHT22;9633;50.980;13.850;2023-04-06T00:41:24;-2.00;99.90
19000;DHT22;9633;50.980;13.850;2023-04-06T00:42:56;-2.00;99.90
19000;DHT22;9633;50.980;13.850;2023-04-06T00:44:30;-2.00;99.90
19000;DHT22;9633;50.980;13.850;2023-04-06T00:46:03;-2.00;99.90
19000;DHT22;9633;50.980;13.850;2023-04-06T00:47:37;-2.00;99.90
19000;DHT22;9633;50.980;13.850;2023-04-06T00:49:12;-2.00;99.90
19000;DHT22;9633;50.980;13.850;2023-04-06T00:50:45;-2.00;99.90
19000;DHT22;9633;50.980;13.850;2023-04-06T00:52:17;-2.10;99.90
19000;DHT22;9633;50.980;13.850;2023-04-06T00:53:52;-2.20;99.90
19000;DHT22;9633;50.980;13.850;2023-04-06T00:55:27;-2.20;99.90
19000;DHT22;9633;50.980;13.850;2023-04-06T00:57:02;-2.20;99.90
19000;DHT22;9633;50.980;13.850;2023-04-06T00:58:36;-2.20;99.90
19000;DHT22;9633;50.980;13.850;2023-04-06T01:00:13;-2.20;99.90
19000;DHT22;9633;50.980;13.850;2023-04-06T01:01:49;-2.10;99.90
19000;DHT22;9633;50.980;13.850;2023-04-06T01:03:41;-2.00;99.90
19000;DHT22;9633;50.980;13.850;2023-04-06T01:05:20;-1.90;99.90
19000;DHT22;9633;50.980;13.850;2023-04-06T01:06:59;-1.80;99.90
19000;DHT22;9633;50.980;13.850;2023-04-06T01:08:40;-1.80;99.90
19000;DHT22;9633;50.980;13.850;2023-04-06T01:10:24;-1.70;99.90
19000;DHT22;9633;50.980;13.850;2023-04-06T01:12:03;-1.80;99.90
19000;DHT22;9633;50.980;13.850;2023-04-06T01:13:38;-1.70;99.90
19000;DHT22;9633;50.980;13.850;2023-04-06T01:15:19;-1.60;99.90
19000;DHT22;9633;50.980;13.850;2023-04-06T01:16:58;-1.50;99.90
19000;DHT22;9633;50.980;13.850;2023-04-06T01:18:37;-1.40;99.90
19000;DHT22;9633;50.980;13.850;2023-04-06T01:20:24;-1.40;99.90
19000;DHT22;9633;50.980;13.850;2023-04-06T01:21:58;-1.40;99.90
19000;DHT22;9633;50.980;13.850;2023-04-06T01:23:35;-1.40;99.90
19000;DHT22;9633;50.980;13.850;2023-04-06T01:25:09;-1.40;99.90
19000;DHT22;9633;50.980;13.850;2023-04-06T01:27:05;-1.30;99.90
19000;DHT22;9633;50.980;13.850;2023-04-06T01:28:49;-1.20;99.90
19000;DHT22;9633;50.980;13.850;2023-04-06T01:30:31;-1.20;99.90
19000;DHT22;9633;50.980;13.850;2023-04-06T01:32:11;-1.30;99.90
19000;DHT22;9633;50.980;13.850;2023-04-06T01:33:52;-1.40;99.90
19000;DHT22;9633;50.980;13.850;2023-04-06T01:35:27;-1.50;99.90
19000;DHT22;9633;50.980;13.850;2023-04-06T01:37:14;-1.50;99.90
19000;DHT22;9633;50.980;13.850;2023-04-06T01:38:49;-1.50;99.90
19000;DHT22;9633;50.980;13.850;2023-04-06T01:40:25;-1.40;99.90
19000;DHT22;9633;50.980;13.850;2023-04-06T01:41:58;-1.50;99.90
19000;DHT22;9633;50.980;13.850;2023-04-06T01:43:32;-1.60;99.90
19000;DHT22;9633;50.980;13.850;2023-04-06T01:45:09;-1.70;99.90
19000;DHT22;9633;50.980;13.850;2023-04-06T01:46:43;-1.70;99.90
19000;DHT22;9633;50.980;13.850;2023-04-06T01:48:21;-1.70;99.90
19000;DHT22;9633;50.980;13.850;2023-04-06T01:49:54;-1.60;99.90
19000;DHT22;9633;50.980;13.850;2023-04-06T01:51:27;-1.50;99.90
19000;DHT22;9633;50.980;13.850;2023-04-06T01:53:05;-1.50;99.90
19000;DHT22;9633;50.980;13.850;2023-04-06T01:54:39;-1.50;99.90
19000;DHT22;9633;50.980;13.850;2023-04-06T01:56:19;-1.50;99.90
19000;DHT22;9633;50.980;13.850;2023-04-06T01:58:02;-1.60;99.90
19000;DHT22;9633;50.980;13.850;2023-04-06T01:59:40;-1.50;99.90
19000;DHT22;9633;50.980;13.850;2023-04-06T02:01:20;-1.60;99.90
19000;DHT22;9633;50.980;13.850;2023-04-06T02:02:58;-1.60;99.90
19000;DHT22;9633;50.980;13.850;2023-04-06T02:04:33;-1.60;99.90
19000;DHT22;9633;50.980;13.850;2023-04-06T02:06:14;-1.60;99.90
19000;DHT22;9633;50.980;13.850;2023-04-06T02:07:47;-1.60;99.90
19000;DHT22;9633;50.980;13.850;2023-04-06T02:09:26;-1.60;99.90
19000;DHT22;9633;50.980;13.850;2023-04-06T02:11:01;-1.60;99.90
19000;DHT22;9633;50.980;13.850;2023-04-06T02:12:41;-1.60;99.90
19000;DHT22;9633;50.980;13.850;2023-04-06T02:14:16;-1.70;99.90
19000;DHT22;9633;50.980;13.850;2023-04-06T02:15:55;-1.80;99.90
19000;DHT22;9633;50.980;13.850;2023-04-06T02:17:31;-1.80;99.90
19000;DHT22;9633;50.980;13.850;2023-04-06T02:19:03;-1.80;99.90
19000;DHT22;9633;50.980;13.850;2023-04-06T02:20:36;-1.80;99.90
19000;DHT22;9633;50.980;13.850;2023-04-06T02:22:09;-1.80;99.90
19000;DHT22;9633;50.980;13.850;2023-04-06T02:23:42;-1.80;99.90
19000;DHT22;9633;50.980;13.850;2023-04-06T02:25:16;-1.80;99.90
19000;DHT22;9633;50.980;13.850;2023-04-06T02:26:51;-1.80;99.90
19000;DHT22;9633;50.980;13.850;2023-04-06T02:28:24;-1.90;99.90
19000;DHT22;9633;50.980;13.850;2023-04-06T02:29:57;-1.80;99.90
19000;DHT22;9633;50.980;13.850;2023-04-06T02:31:31;-1.90;99.90
19000;DHT22;9633;50.980;13.850;2023-04-06T02:33:04;-1.80;99.90
19000;DHT22;9633;50.980;13.850;2023-04-06T02:34:45;-1.80;99.90
19000;DHT22;9633;50.980;13.850;2023-04-06T02:36:20;-1.80;99.90
19000;DHT22;9633;50.980;13.850;2023-04-06T02:37:52;-1.90;99.90
19000;DHT22;9633;50.980;13.850;2023-04-06T02:39:25;-1.90;99.90
19000;DHT22;9633;50.980;13.850;2023-04-06T02:40:59;-1.90;99.90
19000;DHT22;9633;50.980;13.850;2023-04-06T02:42:35;-2.00;99.90
19000;DHT22;9633;50.980;13.850;2023-04-06T02:44:08;-1.90;99.90
19000;DHT22;9633;50.980;13.850;2023-04-06T02:45:45;-2.00;99.90
19000;DHT22;9633;50.980;13.850;2023-04-06T02:47:18;-2.00;99.90
19000;DHT22;9633;50.980;13.850;2023-04-06T02:48:55;-2.00;99.90
19000;DHT22;9633;50.980;13.850;2023-04-06T02:50:29;-2.00;99.90
19000;DHT22;9633;50.980;13.850;2023-04-06T02:52:05;-2.00;99.90
19000;DHT22;9633;50.980;13.850;2023-04-06T02:53:40;-2.00;99.90
19000;DHT22;9633;50.980;13.850;2023-04-06T02:55:13;-2.00;99.90
19000;DHT22;9633;50.980;13.850;2023-04-06T02:56:47;-2.00;99.90
19000;DHT22;9633;50.980;13.850;2023-04-06T02:58:21;-2.00;99.90
19000;DHT22;9633;50.980;13.850;2023-04-06T02:59:58;-2.10;99.90
19000;DHT22;9633;50.980;13.850;2023-04-06T03:01:39;-2.10;99.90
19000;DHT22;9633;50.980;13.850;2023-04-06T03:03:13;-2.20;99.90
19000;DHT22;9633;50.980;13.850;2023-04-06T03:04:48;-2.20;99.90
19000;DHT22;9633;50.980;13.850;2023-04-06T03:06:30;-2.20;99.90
19000;DHT22;9633;50.980;13.850;2023-04-06T03:08:11;-2.20;99.90
19000;DHT22;9633;50.980;13.850;2023-04-06T03:09:49;-2.20;99.90
19000;DHT22;9633;50.980;13.850;2023-04-06T03:11:22;-2.20;99.90
19000;DHT22;9633;50.980;13.850;2023-04-06T03:12:57;-2.20;99.90
19000;DHT22;9633;50.980;13.850;2023-04-06T03:14:50;-2.20;99.90
19000;DHT22;9633;50.980;13.850;2023-04-06T03:16:23;-2.30;99.90
19000;DHT22;9633;50.980;13.850;2023-04-06T03:17:58;-2.30;99.90
19000;DHT22;9633;50.980;13.850;2023-04-06T03:19:50;-2.30;99.90
19000;DHT22;9633;50.980;13.850;2023-04-06T03:21:25;-2.20;99.90
19000;DHT22;9633;50.980;13.850;2023-04-06T03:22:59;-2.10;99.90
19000;DHT22;9633;50.980;13.850;2023-04-06T03:24:35;-2.10;99.90
19000;DHT22;9633;50.980;13.850;2023-04-06T03:26:09;-2.10;99.90
19000;DHT22;9633;50.980;13.850;2023-04-06T03:27:43;-2.20;99.90
19000;DHT22;9633;50.980;13.850;2023-04-06T03:29:18;-2.20;99.90
19000;DHT22;9633;50.980;13.850;2023-04-06T03:30:53;-2.20;99.90
19000;DHT22;9633;50.980;13.850;2023-04-06T03:32:41;-2.30;99.90
19000;DHT22;9633;50.980;13.850;2023-04-06T03:34:14;-2.30;99.90
19000;DHT22;9633;50.980;13.850;2023-04-06T03:35:46;-2.30;99.90
19000;DHT22;9633;50.980;13.850;2023-04-06T03:37:20;-2.30;99.90
19000;DHT22;9633;50.980;13.850;2023-04-06T03:38:58;-2.30;99.90
19000;DHT22;9633;50.980;13.850;2023-04-06T03:40:30;-2.50;99.90
19000;DHT22;9633;50.980;13.850;2023-04-06T03:42:04;-2.50;99.90
19000;DHT22;9633;50.980;13.850;2023-04-06T03:43:43;-2.50;99.90
19000;DHT22;9633;50.980;13.850;2023-04-06T03:45:16;-2.50;99.90
19000;DHT22;9633;50.980;13.850;2023-04-06T03:46:54;-2.50;99.90
19000;DHT22;9633;50.980;13.850;2023-04-06T03:48:28;-2.40;99.90
19000;DHT22;9633;50.980;13.850;2023-04-06T03:50:06;-2.40;99.90
19000;DHT22;9633;50.980;13.850;2023-04-06T03:51:40;-2.30;99.90
19000;DHT22;9633;50.980;13.850;2023-04-06T03:53:13;-2.30;99.90
19000;DHT22;9633;50.980;13.850;2023-04-06T03:54:46;-2.30;99.90
19000;DHT22;9633;50.980;13.850;2023-04-06T03:56:19;-2.30;99.90
19000;DHT22;9633;50.980;13.850;2023-04-06T03:57:52;-2.40;99.90
19000;DHT22;9633;50.980;13.850;2023-04-06T03:59:26;-2.60;99.90
19000;DHT22;9633;50.980;13.850;2023-04-06T04:00:59;-2.70;99.90
19000;DHT22;9633;50.980;13.850;2023-04-06T04:02:33;-2.70;99.90
19000;DHT22;9633;50.980;13.850;2023-04-06T04:04:06;-2.80;99.90
19000;DHT22;9633;50.980;13.850;2023-04-06T04:05:39;-2.80;99.90
19000;DHT22;9633;50.980;13.850;2023-04-06T04:07:13;-2.80;99.90
19000;DHT22;9633;50.980;13.850;2023-04-06T04:08:46;-2.80;99.90
19000;DHT22;9633;50.980;13.850;2023-04-06T04:10:20;-2.70;99.90
19000;DHT22;9633;50.980;13.850;2023-04-06T04:11:53;-2.70;99.90
19000;DHT22;9633;50.980;13.850;2023-04-06T04:13:26;-2.80;99.90
19000;DHT22;9633;50.980;13.850;2023-04-06T04:14:58;-2.80;99.90
19000;DHT22;9633;50.980;13.850;2023-04-06T04:16:32;-2.90;99.90
19000;DHT22;9633;50.980;13.850;2023-04-06T04:18:06;-3.10;99.90
19000;DHT22;9633;50.980;13.850;2023-04-06T04:19:39;-3.20;99.90
19000;DHT22;9633;50.980;13.850;2023-04-06T04:21:12;-3.20;99.90
19000;DHT22;9633;50.980;13.850;2023-04-06T04:22:45;-3.30;99.90
19000;DHT22;9633;50.980;13.850;2023-04-06T04:24:19;-3.30;99.90
19000;DHT22;9633;50.980;13.850;2023-04-06T04:25:51;-3.20;99.90
19000;DHT22;9633;50.980;13.850;2023-04-06T04:27:24;-3.20;99.90
19000;DHT22;9633;50.980;13.850;2023-04-06T04:28:57;-3.10;99.90
19000;DHT22;9633;50.980;13.850;2023-04-06T04:30:30;-3.20;99.90
19000;DHT22;9633;50.980;13.850;2023-04-06T04:32:04;-3.30;99.90
19000;DHT22;9633;50.980;13.850;2023-04-06T04:33:39;-3.20;99.90
19000;DHT22;9633;50.980;13.850;2023-04-06T04:35:18;-3.10;99.90
19000;DHT22;9633;50.980;13.850;2023-04-06T04:36:51;-3.10;99.90
19000;DHT22;9633;50.980;13.850;2023-04-06T04:38:34;-3.00;99.90
19000;DHT22;9633;50.980;13.850;2023-04-06T04:40:08;-2.90;99.90
19000;DHT22;9633;50.980;13.850;2023-04-06T04:42:07;-2.80;99.90
19000;DHT22;9633;50.980;13.850;2023-04-06T04:43:46;-2.60;99.90
19000;DHT22;9633;50.980;13.850;2023-04-06T04:45:24;-2.50;99.90
19000;DHT22;9633;50.980;13.850;2023-04-06T04:46:57;-2.40;99.90
19000;DHT22;9633;50.980;13.850;2023-04-06T04:48:42;-2.40;99.90
19000;DHT22;9633;50.980;13.850;2023-04-06T04:50:15;-2.40;99.90
19000;DHT22;9633;50.980;13.850;2023-04-06T04:51:51;-2.40;99.90
19000;DHT22;9633;50.980;13.850;2023-04-06T04:53:37;-2.50;99.90
19000;DHT22;9633;50.980;13.850;2023-04-06T04:55:20;-2.50;99.90
19000;DHT22;9633;50.980;13.850;2023-04-06T04:56:58;-2.40;99.90
19000;DHT22;9633;50.980;13.850;2023-04-06T04:58:42;-2.40;99.90
19000;DHT22;9633;50.980;13.850;2023-04-06T05:00:16;-2.30;99.90
19000;DHT22;9633;50.980;13.850;2023-04-06T05:01:50;-2.00;99.90
19000;DHT22;9633;50.980;13.850;2023-04-06T05:03:31;-1.60;99.90
19000;DHT22;9633;50.980;13.850;2023-04-06T05:05:10;-1.20;99.90
19000;DHT22;9633;50.980;13.850;2023-04-06T05:06:44;-0.80;99.90
19000;DHT22;9633;50.980;13.850;2023-04-06T05:08:18;-0.30;99.90
19000;DHT22;9633;50.980;13.850;2023-04-06T05:09:52;0.00;99.90
19000;DHT22;9633;50.980;13.850;2023-04-06T05:11:29;0.30;99.90
19000;DHT22;9633;50.980;13.850;2023-04-06T05:13:05;0.20;99.90
19000;DHT22;9633;50.980;13.850;2023-04-06T05:14:38;0.20;99.90
19000;DHT22;9633;50.980;13.850;2023-04-06T05:16:17;0.60;99.90
19000;DHT22;9633;50.980;13.850;2023-04-06T05:17:51;1.50;99.90
19000;DHT22;9633;50.980;13.850;2023-04-06T05:19:30;2.20;57.20
19000;DHT22;9633;50.980;13.850;2023-04-06T05:21:04;2.10;30.20
19000;DHT22;9633;50.980;13.850;2023-04-06T05:22:55;1.80;30.00
19000;DHT22;9633;50.980;13.850;2023-04-06T05:24:29;2.70;36.60
19000;DHT22;9633;50.980;13.850;2023-04-06T05:26:03;3.50;22.60
19000;DHT22;9633;50.980;13.850;2023-04-06T05:27:36;4.10;4.60
19000;DHT22;9633;50.980;13.850;2023-04-06T05:29:15;4.00;1.00
19000;DHT22;9633;50.980;13.850;2023-04-06T05:30:50;4.10;1.00
19000;DHT22;9633;50.980;13.850;2023-04-06T05:32:23;4.60;1.00
19000;DHT22;9633;50.980;13.850;2023-04-06T05:33:57;5.70;1.00
19000;DHT22;9633;50.980;13.850;2023-04-06T05:35:36;6.50;1.00
19000;DHT22;9633;50.980;13.850;2023-04-06T05:37:16;7.30;1.00
19000;DHT22;9633;50.980;13.850;2023-04-06T05:38:49;8.20;1.00
19000;DHT22;9633;50.980;13.850;2023-04-06T05:40:44;8.40;1.00
19000;DHT22;9633;50.980;13.850;2023-04-06T05:42:22;9.40;1.00
19000;DHT22;9633;50.980;13.850;2023-04-06T05:44:01;10.10;1.00
19000;DHT22;9633;50.980;13.850;2023-04-06T05:45:35;10.20;1.00
19000;DHT22;9633;50.980;13.850;2023-04-06T05:47:10;10.40;1.00
19000;DHT22;9633;50.980;13.850;2023-04-06T05:48:45;9.80;1.00
19000;DHT22;9633;50.980;13.850;2023-04-06T05:50:19;10.30;1.00
19000;DHT22;9633;50.980;13.850;2023-04-06T05:51:52;10.60;1.00
19000;DHT22;9633;50.980;13.850;2023-04-06T05:53:26;10.40;1.00
19000;DHT22;9633;50.980;13.850;2023-04-06T05:55:04;10.40;1.00
19000;DHT22;9633;50.980;13.850;2023-04-06T05:56:40;10.60;1.00
19000;DHT22;9633;50.980;13.850;2023-04-06T05:58:16;10.20;1.00
19000;DHT22;9633;50.980;13.850;2023-04-06T05:59:50;10.20;1.00
19000;DHT22;9633;50.980;13.850;2023-04-06T06:01:24;10.00;1.00
19000;DHT22;9633;50.980;13.850;2023-04-06T06:02:57;10.10;1.00
19000;DHT22;9633;50.980;13.850;2023-04-06T06:04:33;10.10;1.00
19000;DHT22;9633;50.980;13.850;2023-04-06T06:06:06;10.30;1.00
19000;DHT22;9633;50.980;13.850;2023-04-06T06:07:50;10.10;1.00
19000;DHT22;9633;50.980;13.850;2023-04-06T06:09:26;10.10;1.00
19000;DHT22;9633;50.980;13.850;2023-04-06T06:11:11;10.30;1.00
19000;DHT22;9633;50.980;13.850;2023-04-06T06:12:44;10.40;1.00
19000;DHT22;9633;50.980;13.850;2023-04-06T06:14:19;10.60;1.00
19000;DHT22;9633;50.980;13.850;2023-04-06T06:15:54;11.10;1.00
19000;DHT22;9633;50.980;13.850;2023-04-06T06:17:28;11.00;1.00
19000;DHT22;9633;50.980;13.850;2023-04-06T06:19:01;11.10;1.00
19000;DHT22;9633;50.980;13.850;2023-04-06T06:20:36;11.10;1.00
19000;DHT22;9633;50.980;13.850;2023-04-06T06:22:10;11.40;1.00
19000;DHT22;9633;50.980;13.850;2023-04-06T06:23:46;11.80;1.00
19000;DHT22;9633;50.980;13.850;2023-04-06T06:25:25;12.00;1.00
19000;DHT22;9633;50.980;13.850;2023-04-06T06:26:59;12.30;1.00
19000;DHT22;9633;50.980;13.850;2023-04-06T06:28:35;12.60;1.00
19000;DHT22;9633;50.980;13.850;2023-04-06T06:30:09;12.40;1.00
19000;DHT22;9633;50.980;13.850;2023-04-06T06:31:45;12.20;1.00
19000;DHT22;9633;50.980;13.850;2023-04-06T06:33:19;12.60;1.00
19000;DHT22;9633;50.980;13.850;2023-04-06T06:34:55;12.80;1.00
19000;DHT22;9633;50.980;13.850;2023-04-06T06:36:29;13.40;1.00
19000;DHT22;9633;50.980;13.850;2023-04-06T06:38:03;13.30;1.00
19000;DHT22;9633;50.980;13.850;2023-04-06T06:39:37;12.90;1.00
19000;DHT22;9633;50.980;13.850;2023-04-06T06:41:12;12.60;1.00
19000;DHT22;9633;50.980;13.850;2023-04-06T06:42:46;12.30;1.00
19000;DHT22;9633;50.980;13.850;2023-04-06T06:44:25;12.40;1.00
19000;DHT22;9633;50.980;13.850;2023-04-06T06:45:59;12.40;1.00
19000;DHT22;9633;50.980;13.850;2023-04-06T06:47:32;12.50;1.00
19000;DHT22;9633;50.980;13.850;2023-04-06T06:49:05;12.80;1.00
19000;DHT22;9633;50.980;13.850;2023-04-06T06:50:39;12.60;1.00
19000;DHT22;9633;50.980;13.850;2023-04-06T06:52:12;12.70;1.00
19000;DHT22;9633;50.980;13.850;2023-04-06T06:53:45;13.30;1.00
19000;DHT22;9633;50.980;13.850;2023-04-06T06:55:19;13.70;1.00
19000;DHT22;9633;50.980;13.850;2023-04-06T06:56:53;14.30;1.00
19000;DHT22;9633;50.980;13.850;2023-04-06T06:58:27;14.20;1.00
19000;DHT22;9633;50.980;13.850;2023-04-06T07:00:00;14.60;1.00
19000;DHT22;9633;50.980;13.850;2023-04-06T07:01:36;14.70;1.00
19000;DHT22;9633;50.980;13.850;2023-04-06T07:03:09;14.30;1.00
19000;DHT22;9633;50.980;13.850;2023-04-06T07:04:43;14.30;1.00
19000;DHT22;9633;50.980;13.850;2023-04-06T07:06:17;14.10;1.00
19000;DHT22;9633;50.980;13.850;2023-04-06T07:07:50;13.90;1.00
19000;DHT22;9633;50.980;13.850;2023-04-06T07:09:23;13.10;1.00
19000;DHT22;9633;50.980;13.850;2023-04-06T07:10:58;14.40;1.00
19000;DHT22;9633;50.980;13.850;2023-04-06T07:12:32;14.50;1.00
19000;DHT22;9633;50.980;13.850;2023-04-06T07:14:06;14.80;1.00
19000;DHT22;9633;50.980;13.850;2023-04-06T07:15:40;15.60;1.00
19000;DHT22;9633;50.980;13.850;2023-04-06T07:17:13;16.10;1.00
19000;DHT22;9633;50.980;13.850;2023-04-06T07:18:47;16.00;1.00
19000;DHT22;9633;50.980;13.850;2023-04-06T07:20:20;16.00;1.00
19000;DHT22;9633;50.980;13.850;2023-04-06T07:21:54;16.10;1.00
19000;DHT22;9633;50.980;13.850;2023-04-06T07:23:28;16.10;1.00
19000;DHT22;9633;50.980;13.850;2023-04-06T07:25:01;15.70;1.00
19000;DHT22;9633;50.980;13.850;2023-04-06T07:26:34;15.50;1.00
19000;DHT22;9633;50.980;13.850;2023-04-06T07:28:10;14.80;1.00
19000;DHT22;9633;50.980;13.850;2023-04-06T07:29:44;14.20;1.00
19000;DHT22;9633;50.980;13.850;2023-04-06T07:31:17;13.50;1.00
19000;DHT22;9633;50.980;13.850;2023-04-06T07:32:50;13.30;1.00
19000;DHT22;9633;50.980;13.850;2023-04-06T07:34:24;13.30;1.00
19000;DHT22;9633;50.980;13.850;2023-04-06T07:35:57;13.00;1.00
19000;DHT22;9633;50.980;13.850;2023-04-06T07:37:31;12.50;1.00
19000;DHT22;9633;50.980;13.850;2023-04-06T07:39:04;11.90;1.00
19000;DHT22;9633;50.980;13.850;2023-04-06T07:40:39;11.80;1.00
19000;DHT22;9633;50.980;13.850;2023-04-06T07:42:12;11.50;1.00
19000;DHT22;9633;50.980;13.850;2023-04-06T07:43:49;11.10;1.00
19000;DHT22;9633;50.980;13.850;2023-04-06T07:45:22;10.80;1.00
19000;DHT22;9633;50.980;13.850;2023-04-06T07:46:56;11.00;1.00
19000;DHT22;9633;50.980;13.850;2023-04-06T07:48:30;11.10;1.00
19000;DHT22;9633;50.980;13.850;2023-04-06T07:50:04;11.30;1.00
19000;DHT22;9633;50.980;13.850;2023-04-06T07:51:38;11.70;1.00
19000;DHT22;9633;50.980;13.850;2023-04-06T07:53:11;12.00;1.00
19000;DHT22;9633;50.980;13.850;2023-04-06T07:54:45;11.80;1.00
19000;DHT22;9633;50.980;13.850;2023-04-06T07:56:18;12.00;1.00
19000;DHT22;9633;50.980;13.850;2023-04-06T07:57:52;12.20;1.00
19000;DHT22;9633;50.980;13.850;2023-04-06T07:59:27;12.30;1.00
19000;DHT22;9633;50.980;13.850;2023-04-06T08:01:01;12.60;1.00
19000;DHT22;9633;50.980;13.850;2023-04-06T08:02:34;13.00;1.00
19000;DHT22;9633;50.980;13.850;2023-04-06T08:04:08;13.10;1.00
19000;DHT22;9633;50.980;13.850;2023-04-06T08:05:41;12.50;1.00
19000;DHT22;9633;50.980;13.850;2023-04-06T08:07:14;13.00;1.00
19000;DHT22;9633;50.980;13.850;2023-04-06T08:08:48;13.00;1.00
19000;DHT22;9633;50.980;13.850;2023-04-06T08:10:21;13.20;1.00
19000;DHT22;9633;50.980;13.850;2023-04-06T08:11:54;13.20;1.00
19000;DHT22;9633;50.980;13.850;2023-04-06T08:13:28;13.20;1.00
19000;DHT22;9633;50.980;13.850;2023-04-06T08:15:03;13.50;1.00
19000;DHT22;9633;50.980;13.850;2023-04-06T08:16:36;13.80;1.00
19000;DHT22;9633;50.980;13.850;2023-04-06T08:18:09;13.90;1.00
19000;DHT22;9633;50.980;13.850;2023-04-06T08:19:43;13.60;1.00
19000;DHT22;9633;50.980;13.850;2023-04-06T08:21:16;13.60;1.00
19000;DHT22;9633;50.980;13.850;2023-04-06T08:22:50;13.70;1.00
19000;DHT22;9633;50.980;13.850;2023-04-06T08:24:24;13.70;1.00
19000;DHT22;9633;50.980;13.850;2023-04-06T08:25:57;13.60;1.00
19000;DHT22;9633;50.980;13.850;2023-04-06T08:27:31;13.70;1.00
19000;DHT22;9633;50.980;13.850;2023-04-06T08:29:04;13.60;1.00
19000;DHT22;9633;50.980;13.850;2023-04-06T08:30:42;14.20;1.00
19000;DHT22;9633;50.980;13.850;2023-04-06T08:32:15;15.00;1.00
19000;DHT22;9633;50.980;13.850;2023-04-06T08:33:48;15.20;1.00
19000;DHT22;9633;50.980;13.850;2023-04-06T08:35:22;14.80;1.00
19000;DHT22;9633;50.980;13.850;2023-04-06T08:36:55;14.80;1.00
19000;DHT22;9633;50.980;13.850;2023-04-06T08:38:28;14.90;1.00
19000;DHT22;9633;50.980;13.850;2023-04-06T08:40:01;14.70;1.00
19000;DHT22;9633;50.980;13.850;2023-04-06T08:41:36;15.30;1.00
19000;DHT22;9633;50.980;13.850;2023-04-06T08:43:12;15.50;1.00
19000;DHT22;9633;50.980;13.850;2023-04-06T08:44:46;15.60;20.60
19000;DHT22;9633;50.980;13.850;2023-04-06T08:46:21;15.20;19.20
19000;DHT22;9633;50.980;13.850;2023-04-06T08:48:02;14.80;18.50
19000;DHT22;9633;50.980;13.850;2023-04-06T08:49:37;15.10;21.30
19000;DHT22;9633;50.980;13.850;2023-04-06T08:51:11;15.70;21.80
19000;DHT22;9633;50.980;13.850;2023-04-06T08:52:46;15.50;27.20
19000;DHT22;9633;50.980;13.850;2023-04-06T08:54:20;15.20;27.80
19000;DHT22;9633;50.980;13.850;2023-04-06T08:55:54;15.10;26.90
19000;DHT22;9633;50.980;13.850;2023-04-06T08:57:28;15.40;28.60
19000;DHT22;9633;50.980;13.850;2023-04-06T08:59:03;16.10;31.50
19000;DHT22;9633;50.980;13.850;2023-04-06T09:00:38;16.40;35.10
19000;DHT22;9633;50.980;13.850;2023-04-06T09:02:16;16.50;33.40
19000;DHT22;9633;50.980;13.850;2023-04-06T09:03:51;16.40;35.60
19000;DHT22;9633;50.980;13.850;2023-04-06T09:05:28;15.90;35.70
19000;DHT22;9633;50.980;13.850;2023-04-06T09:07:01;15.60;36.80
19000;DHT22;9633;50.980;13.850;2023-04-06T09:08:35;15.80;40.40
19000;DHT22;9633;50.980;13.850;2023-04-06T09:10:09;16.00;42.60
19000;DHT22;9633;50.980;13.850;2023-04-06T09:11:45;16.70;38.00
19000;DHT22;9633;50.980;13.850;2023-04-06T09:13:19;16.10;44.20
19000;DHT22;9633;50.980;13.850;2023-04-06T09:14:52;16.80;43.70
19000;DHT22;9633;50.980;13.850;2023-04-06T09:16:26;17.00;43.50
19000;DHT22;9633;50.980;13.850;2023-04-06T09:18:01;17.10;45.20
19000;DHT22;9633;50.980;13.850;2023-04-06T09:19:45;16.50;44.90
19000;DHT22;9633;50.980;13.850;2023-04-06T09:21:19;16.70;48.50
19000;DHT22;9633;50.980;13.850;2023-04-06T09:22:56;17.30;43.80
19000;DHT22;9633;50.980;13.850;2023-04-06T09:24:40;17.10;46.70
19000;DHT22;9633;50.980;13.850;2023-04-06T09:26:14;16.50;49.60
19000;DHT22;9633;50.980;13.850;2023-04-06T09:27:48;17.10;47.10
19000;DHT22;9633;50.980;13.850;2023-04-06T09:29:22;16.40;46.30
19000;DHT22;9633;50.980;13.850;2023-04-06T09:30:58;16.50;52.20
19000;DHT22;9633;50.980;13.850;2023-04-06T09:32:32;16.60;53.50
19000;DHT22;9633;50.980;13.850;2023-04-06T09:34:06;17.20;49.50
19000;DHT22;9633;50.980;13.850;2023-04-06T09:35:49;17.40;48.20
19000;DHT22;9633;50.980;13.850;2023-04-06T09:37:22;17.60;50.30
19000;DHT22;9633;50.980;13.850;2023-04-06T09:38:57;17.30;51.10
19000;DHT22;9633;50.980;13.850;2023-04-06T09:40:30;17.40;49.80
19000;DHT22;9633;50.980;13.850;2023-04-06T09:42:04;16.60;50.40
19000;DHT22;9633;50.980;13.850;2023-04-06T09:43:37;15.50;50.60
19000;DHT22;9633;50.980;13.850;2023-04-06T09:45:10;17.10;52.30
19000;DHT22;9633;50.980;13.850;2023-04-06T09:46:44;17.60;53.30
19000;DHT22;9633;50.980;13.850;2023-04-06T09:48:34;17.20;51.40
19000;DHT22;9633;50.980;13.850;2023-04-06T09:50:12;17.50;53.00
19000;DHT22;9633;50.980;13.850;2023-04-06T09:51:46;17.70;55.20
19000;DHT22;9633;50.980;13.850;2023-04-06T09:53:24;17.60;53.10
19000;DHT22;9633;50.980;13.850;2023-04-06T09:55:02;18.00;56.30
19000;DHT22;9633;50.980;13.850;2023-04-06T09:56:45;18.40;59.20
19000;DHT22;9633;50.980;13.850;2023-04-06T09:58:19;18.60;56.70
19000;DHT22;9633;50.980;13.850;2023-04-06T10:00:03;18.00;54.40
19000;DHT22;9633;50.980;13.850;2023-04-06T10:01:40;17.70;56.00
19000;DHT22;9633;50.980;13.850;2023-04-06T10:03:20;17.90;56.20
19000;DHT22;9633;50.980;13.850;2023-04-06T10:05:05;18.60;51.40
19000;DHT22;9633;50.980;13.850;2023-04-06T10:06:40;17.70;49.70
19000;DHT22;9633;50.980;13.850;2023-04-06T10:08:13;17.80;53.90